Hazard, NE (68844)

3:24 PM CDT on August 29, 2016 (GMT -0500)
Deeds Hazard | | Change Station

Elev 2103 ft 41.09 °N, 99.09 °W | Updated 24 seconds ago

Partly Cloudy
Partly Cloudy
81.3 °F
Feels Like 83 °F
N
1.3
Wind Variable Wind from SW
Gusts 2.5 mph

Today
High -- | Low -- °F
--% Chance of Precip.
Yesterday
High -- | Low -- °F
Precip. -- in
Pressure 30.20 in
Visibility 10.0 miles
Clouds Few 3800 ft
Heat Index 83 °F
Dew Point 66 °F
Humidity 59%
Rainfall 0.00 in
Snow Depth Not available.
6:59 AM 8:12 PM
Waning Crescent, 7% visible
METAR KEAR 292015Z AUTO 00000KT 10SM FEW038 25/18 A3020 RMK AO1
Pressure 30.20 in
Visibility 10.0 miles
Clouds Few 3800 ft
Heat Index 83 °F
Dew Point 66 °F
Humidity 59%
Rainfall 0.00 in
Snow Depth Not available.
6:59 AM 8:12 PM
Waning Crescent, 7% visible
METAR KEAR 292015Z AUTO 00000KT 10SM FEW038 25/18 A3020 RMK AO1

10-Day Weather Forecast

Almanac

Astronomy

Aug. 29, 2016 Rise Set
Actual Time
Civil Twilight
Nautical Twilight
Astronomical Twilight
Moon
Length of Visible Light
Length of Day
Tomorrow will be .
, % of the Moon is Illuminated

Today's Extremes

State Highs State Lows

Community

WunderPhotos

Upload Photos

1,935,659 photos uploaded!

WunderBlog® & News

Nearby

Air Quality

  Air Quality AQ Index Pollutant
Not available.

Snow Depth

Station Depth Elevation

Earthquake Activity

City Distance Mag. Time & Date
Minimum magnitude displayed is 2.5.

Coastal Water Temperatures

Place Temperature

Stations

Nearby Weather Stations

Station Location Temp. Windchill Dew Point Humidity Wind Precip. Elev Updated Type
                   

Watches & Warnings

There are currently no watches in effect.